Time;durP1;ratioP1;P1;durP2;ratioP2;P2;SDS_P1;SDS_P2;PMS_P1;PMS_P2;Temp;Humidity;BMP_temperature;BMP_pressure;BME280_temperature;BME280_humidity;BME280_pressure;Samples;Min_cycle;Max_cycle;Signal;HPM_P1;HPM_P2
2023/07/12 00:01:00;;;;;;;9.30;4.90;;;;;;;17.75;72.60;100030.34;4239103;28;20243;-67
2023/07/12 00:03:27;;;;;;;11.60;5.00;;;;;;;17.74;72.85;100034.16;4252529;28;20254;-66
2023/07/12 00:05:54;;;;;;;11.27;4.97;;;;;;;17.65;73.14;100027.16;4235436;28;20227;-65
2023/07/12 00:08:23;;;;;;;11.30;5.73;;;;;;;17.58;73.44;100036.19;4238408;28;23281;-64
2023/07/12 00:10:52;;;;;;;10.90;5.43;;;;;;;17.65;72.84;100036.19;4243317;28;20569;-67
2023/07/12 00:13:20;;;;;;;12.70;5.43;;;;;;;17.66;72.75;100034.31;4239350;28;20579;-66
2023/07/12 00:15:48;;;;;;;11.53;5.00;;;;;;;17.69;72.55;100039.38;4234971;28;20234;-67
2023/07/12 00:18:21;;;;;;;10.03;4.80;;;;;;;17.69;72.45;100051.19;4218710;28;20235;-65
2023/07/12 00:20:49;;;;;;;8.80;5.50;;;;;;;17.69;72.42;100059.41;4243884;28;21472;-66
2023/07/12 00:23:16;;;;;;;10.53;5.40;;;;;;;17.74;72.21;100056.88;4227955;28;21621;-65
2023/07/12 00:25:45;;;;;;;8.63;4.80;;;;;;;17.77;72.32;100052.06;4236838;28;20230;-66
2023/07/12 00:28:21;;;;;;;12.00;5.20;;;;;;;17.71;72.56;100059.19;4249287;28;20278;-65
2023/07/12 00:30:50;;;;;;;8.37;5.43;;;;;;;17.71;72.71;100059.19;4238087;28;20232;-68
2023/07/12 00:33:17;;;;;;;7.00;4.83;;;;;;;17.67;72.90;100064.22;4235927;28;20234;-64
2023/07/12 00:35:44;;;;;;;12.73;6.27;;;;;;;17.57;73.35;100064.59;4229246;28;24885;-65
2023/07/12 00:38:22;;;;;;;8.77;5.53;;;;;;;17.63;72.83;100064.84;4240131;28;20314;-67
2023/07/12 00:40:58;;;;;;;9.97;5.93;;;;;;;17.77;71.80;100069.31;4232479;28;21296;-67
2023/07/12 00:43:41;;;;;;;12.70;6.70;;;;;;;17.87;71.12;100069.78;4247921;28;21740;-65
2023/07/12 00:46:13;;;;;;;10.50;5.87;;;;;;;18.07;70.07;100057.25;4242469;28;20231;-66
2023/07/12 00:48:40;;;;;;;10.43;4.93;;;;;;;17.93;71.10;100048.09;4233092;28;20234;-65
2023/07/12 00:51:38;;;;;;;11.30;5.83;;;;;;;17.77;72.60;100043.84;4233161;28;25355;-64
2023/07/12 00:54:13;;;;;;;12.50;6.10;;;;;;;17.56;73.22;100038.28;4239448;28;20230;-68
2023/07/12 00:56:40;;;;;;;17.23;6.17;;;;;;;17.52;73.10;100036.97;4246133;28;20303;-66
2023/07/12 00:59:14;;;;;;;11.23;6.43;;;;;;;17.57;72.53;100030.91;4236082;28;20250;-65
2023/07/12 01:01:41;;;;;;;13.70;6.93;;;;;;;17.69;71.45;100031.16;4236615;28;21514;-67
2023/07/12 01:04:10;;;;;;;10.93;6.30;;;;;;;17.64;71.61;100028.22;4229227;28;20310;-66
2023/07/12 01:06:37;;;;;;;8.53;5.37;;;;;;;17.67;71.34;100025.06;4215122;28;20328;-64
2023/07/12 01:09:11;;;;;;;10.80;6.10;;;;;;;17.63;71.41;100021.03;4236743;28;20305;-66
2023/07/12 01:11:38;;;;;;;10.43;6.27;;;;;;;17.52;72.11;100019.72;4237189;28;20233;-64
2023/07/12 01:14:10;;;;;;;11.33;5.97;;;;;;;17.51;72.15;100010.69;4233411;28;20239;-67
2023/07/12 01:16:38;;;;;;;9.70;6.57;;;;;;;17.65;71.35;100011.56;4232494;28;20446;-66
2023/07/12 01:19:05;;;;;;;14.10;6.40;;;;;;;17.68;71.56;100013.91;4238014;28;21022;-64
2023/07/12 01:21:33;;;;;;;16.63;6.50;;;;;;;17.59;71.84;100023.34;4234394;28;20646;-65
2023/07/12 01:24:00;;;;;;;10.33;6.20;;;;;;;17.73;70.88;100016.03;4239700;28;20285;-67
2023/07/12 01:26:34;;;;;;;9.73;5.87;;;;;;;17.73;71.28;100010.56;4237450;28;20441;-65
2023/07/12 01:29:04;;;;;;;10.67;6.07;;;;;;;17.67;71.65;100019.59;4227702;28;20312;-67
2023/07/12 01:31:31;;;;;;;9.73;6.00;;;;;;;17.64;71.76;100018.09;4246524;28;20594;-68
2023/07/12 01:33:58;;;;;;;10.33;6.60;;;;;;;17.99;69.75;100009.84;4225819;28;20331;-64
2023/07/12 01:36:26;;;;;;;10.03;7.17;;;;;;;18.13;69.08;100004.38;4241631;28;23346;-66
2023/07/12 01:38:54;;;;;;;8.97;6.33;;;;;;;18.24;68.50;99997.44;4236848;28;20303;-66
2023/07/12 01:41:21;;;;;;;10.67;7.17;;;;;;;18.09;69.25;100006.69;4255473;28;20468;-65
2023/07/12 01:43:48;;;;;;;12.93;6.97;;;;;;;18.28;68.15;100004.19;4232327;28;20293;-68
2023/07/12 01:46:15;;;;;;;13.87;6.23;;;;;;;18.27;68.47;100000.59;4241504;28;21874;-68
2023/07/12 01:48:45;;;;;;;15.67;6.43;;;;;;;18.07;69.43;99997.81;4239640;28;25473;-66
2023/07/12 01:51:12;;;;;;;11.10;5.63;;;;;;;18.00;69.79;99991.50;4249864;28;20234;-67
2023/07/12 01:53:40;;;;;;;10.53;6.53;;;;;;;18.16;68.33;99990.28;4258416;28;20363;-67
2023/07/12 01:56:07;;;;;;;10.80;5.67;;;;;;;18.22;68.22;100005.88;4226253;28;20268;-66
2023/07/12 01:58:34;;;;;;;10.10;5.40;;;;;;;18.33;67.64;100005.25;4250108;28;20230;-66
2023/07/12 02:01:01;;;;;;;9.93;6.30;;;;;;;18.23;68.06;100002.09;4252643;28;20230;-65
2023/07/12 02:03:27;;;;;;;10.60;5.60;;;;;;;18.13;68.51;100005.19;4240275;28;20259;-66
2023/07/12 02:05:55;;;;;;;10.57;5.73;;;;;;;18.06;69.09;99993.38;4222873;28;20307;-66
2023/07/12 02:08:22;;;;;;;9.33;4.93;;;;;;;18.04;68.66;99993.59;4246151;28;20221;-64
2023/07/12 02:10:49;;;;;;;14.27;5.60;;;;;;;18.05;68.73;99992.56;4237102;28;20370;-66
2023/07/12 02:13:16;;;;;;;13.60;5.17;;;;;;;18.16;67.64;99998.50;4242901;28;20737;-68
2023/07/12 02:15:43;;;;;;;11.73;6.43;;;;;;;18.28;67.35;99994.06;4233248;28;20243;-65
2023/07/12 02:18:11;;;;;;;7.87;5.00;;;;;;;18.50;66.02;99988.38;4247109;28;20288;-67
2023/07/12 02:20:39;;;;;;;9.37;5.00;;;;;;;18.48;65.99;99983.13;4251975;28;20230;-65
2023/07/12 02:23:06;;;;;;;13.50;5.20;;;;;;;18.63;65.34;99979.31;4231321;28;22635;-67
2023/07/12 02:25:33;;;;;;;9.73;5.37;;;;;;;18.58;65.54;99987.34;4244803;28;20235;-64
2023/07/12 02:28:00;;;;;;;8.47;5.33;;;;;;;18.75;64.68;99974.03;4258088;28;21367;-66
2023/07/12 02:30:28;;;;;;;10.87;5.00;;;;;;;18.76;64.29;99970.25;4249323;28;20221;-66
2023/07/12 02:32:55;;;;;;;8.20;5.20;;;;;;;18.74;64.51;99964.97;4244710;28;20234;-64
2023/07/12 02:35:27;;;;;;;10.47;5.57;;;;;;;18.62;65.51;99969.41;4238548;28;20245;-66
2023/07/12 02:37:55;;;;;;;14.10;5.47;;;;;;;18.57;65.36;99975.53;4247372;28;20244;-67
2023/07/12 02:40:24;;;;;;;9.87;6.10;;;;;;;18.62;65.25;99972.97;4248184;28;20233;-66
2023/07/12 02:42:51;;;;;;;8.47;5.30;;;;;;;18.53;65.85;99974.28;4257898;28;20240;-65
2023/07/12 02:45:18;;;;;;;10.37;5.73;;;;;;;18.48;65.76;99971.31;4244037;28;22847;-66
2023/07/12 02:47:45;;;;;;;10.20;5.53;;;;;;;18.39;66.51;99967.94;4245647;28;20249;-67
2023/07/12 02:50:12;;;;;;;13.60;5.77;;;;;;;18.40;66.30;99963.28;4250043;28;22844;-64
2023/07/12 02:52:39;;;;;;;8.90;5.63;;;;;;;18.37;66.61;99954.47;4241898;28;20295;-65
2023/07/12 02:55:06;;;;;;;9.27;5.40;;;;;;;18.31;67.18;99954.44;4249602;28;20234;-65
2023/07/12 02:57:32;;;;;;;10.53;6.00;;;;;;;18.33;67.06;99955.09;4257964;28;20253;-66
2023/07/12 02:59:59;;;;;;;13.53;5.90;;;;;;;18.32;66.92;99964.34;4274863;28;20711;-65
2023/07/12 03:02:30;;;;;;;10.40;6.17;;;;;;;18.38;66.69;99963.50;4257538;28;20226;-65
2023/07/12 03:04:57;;;;;;;13.47;6.10;;;;;;;18.35;66.91;99966.69;4245328;28;20241;-65
2023/07/12 03:07:24;;;;;;;10.70;5.60;;;;;;;18.38;66.76;99966.25;4257207;28;21475;-64
2023/07/12 03:09:56;;;;;;;12.20;5.83;;;;;;;18.42;66.27;99964.78;4267156;28;20238;-67
2023/07/12 03:12:24;;;;;;;10.10;6.03;;;;;;;18.47;66.09;99961.38;4265110;28;20428;-67
2023/07/12 03:14:52;;;;;;;14.30;5.70;;;;;;;18.63;65.49;99952.75;4233601;28;21849;-67
2023/07/12 03:17:21;;;;;;;10.23;5.83;;;;;;;18.53;66.11;99960.56;4248814;28;21126;-64
2023/07/12 03:19:47;;;;;;;9.97;6.13;;;;;;;18.52;66.02;99967.94;4233079;28;20241;-64
2023/07/12 03:22:14;;;;;;;11.23;5.53;;;;;;;18.61;65.53;99954.00;4250523;28;20696;-65
2023/07/12 03:24:41;;;;;;;9.83;5.50;;;;;;;18.78;64.83;99951.66;4261600;28;20243;-65
2023/07/12 03:27:07;;;;;;;10.87;5.93;;;;;;;18.69;65.25;99940.91;4250420;28;20234;-65
2023/07/12 03:29:35;;;;;;;8.70;5.47;;;;;;;18.69;65.15;99946.41;4279822;28;20228;-68
2023/07/12 03:32:02;;;;;;;15.53;5.83;;;;;;;18.81;64.63;99938.38;4246753;28;22929;-66
2023/07/12 03:34:31;;;;;;;10.77;5.30;;;;;;;18.89;64.39;99951.03;4235437;28;20235;-64
2023/07/12 03:36:58;;;;;;;7.37;4.97;;;;;;;18.94;64.40;99944.94;4236957;28;21193;-64
2023/07/12 03:39:25;;;;;;;8.87;5.70;;;;;;;18.98;64.18;99948.91;4264788;28;20242;-67
2023/07/12 03:41:51;;;;;;;13.50;5.67;;;;;;;18.78;64.63;99948.91;4233851;28;20230;-65
2023/07/12 03:44:18;;;;;;;9.93;5.77;;;;;;;18.81;64.77;99943.03;4252721;28;20279;-64
2023/07/12 03:46:46;;;;;;;13.70;5.87;;;;;;;18.76;65.33;99943.66;4249883;28;20237;-67
2023/07/12 03:49:13;;;;;;;12.27;5.73;;;;;;;18.98;64.03;99943.44;4242788;28;20234;-66
2023/07/12 03:51:40;;;;;;;12.83;5.57;;;;;;;19.05;63.80;99936.03;4248074;28;20246;-64
2023/07/12 03:54:06;;;;;;;8.07;5.17;;;;;;;19.19;63.25;99930.47;4247696;28;20247;-65
2023/07/12 03:56:33;;;;;;;8.60;5.00;;;;;;;19.24;63.00;99925.22;4257029;28;23146;-63
2023/07/12 03:58:59;;;;;;;12.67;5.67;;;;;;;19.28;62.70;99916.31;4245253;28;21212;-66
2023/07/12 04:01:26;;;;;;;12.07;5.63;;;;;;;19.22;63.20;99908.94;4243653;28;20308;-67
2023/07/12 04:03:53;;;;;;;9.57;5.67;;;;;;;19.27;62.92;99902.81;4245319;28;20227;-64
2023/07/12 04:06:20;;;;;;;12.47;6.03;;;;;;;19.26;63.04;99893.75;4247922;28;22090;-64
2023/07/12 04:08:47;;;;;;;11.10;5.70;;;;;;;19.25;63.10;99885.75;4237622;28;20872;-64
2023/07/12 04:11:24;;;;;;;8.83;5.00;;;;;;;19.28;63.52;99893.50;4238176;28;20242;-65
2023/07/12 04:13:51;;;;;;;11.50;5.57;;;;;;;19.30;63.21;99886.75;4241671;28;20227;-66
2023/07/12 04:16:17;;;;;;;13.90;5.57;;;;;;;19.40;62.41;99894.53;4239337;28;20323;-65
2023/07/12 04:18:48;;;;;;;14.73;5.23;;;;;;;19.56;61.97;99895.09;4241449;28;20239;-63
2023/07/12 04:21:14;;;;;;;10.57;5.23;;;;;;;19.55;62.31;99887.91;4241363;28;20654;-65
2023/07/12 04:23:41;;;;;;;10.03;5.30;;;;;;;19.70;61.52;99882.09;4238681;28;20248;-64
2023/07/12 04:26:09;;;;;;;9.73;5.30;;;;;;;19.75;61.43;99880.38;4264376;28;20227;-63
2023/07/12 04:28:38;;;;;;;9.17;5.30;;;;;;;19.84;61.33;99880.97;4243212;28;20410;-64
2023/07/12 04:31:08;;;;;;;8.13;5.47;;;;;;;19.91;61.14;99870.78;4238548;28;20334;-64
2023/07/12 04:33:35;;;;;;;10.03;4.97;;;;;;;19.92;60.83;99864.22;4236440;28;20242;-65
2023/07/12 04:36:09;;;;;;;12.00;5.60;;;;;;;20.03;60.44;99870.88;4240084;28;20228;-65
2023/07/12 04:38:36;;;;;;;12.87;5.83;;;;;;;20.04;60.94;99866.25;4278346;28;21266;-64
2023/07/12 04:41:03;;;;;;;10.73;5.40;;;;;;;20.04;61.04;99858.84;4233619;28;20658;-65
2023/07/12 04:43:30;;;;;;;8.77;5.43;;;;;;;20.21;60.43;99866.53;4259040;28;20282;-64
2023/07/12 04:45:57;;;;;;;9.73;5.33;;;;;;;20.26;60.28;99866.69;4288575;28;20275;-64
2023/07/12 04:48:24;;;;;;;7.90;5.10;;;;;;;20.35;59.74;99859.84;4252551;28;20702;-65
2023/07/12 04:50:53;;;;;;;13.80;5.40;;;;;;;20.41;59.71;99858.09;4247806;28;21721;-65
2023/07/12 04:53:21;;;;;;;12.23;5.30;;;;;;;20.52;59.10;99853.75;4256938;28;20287;-65
2023/07/12 04:55:52;;;;;;;10.77;5.47;;;;;;;20.65;58.91;99847.28;4246529;28;20230;-68
2023/07/12 04:58:20;;;;;;;10.97;5.03;;;;;;;20.67;58.44;99845.97;4272231;28;21620;-65
2023/07/12 05:00:47;;;;;;;10.00;5.10;;;;;;;20.81;58.17;99857.69;4251099;28;22514;-65
2023/07/12 05:03:15;;;;;;;12.57;5.20;;;;;;;20.78;57.95;99854.53;4260793;28;20921;-64
2023/07/12 05:05:43;;;;;;;13.50;5.00;;;;;;;20.85;58.11;99853.41;4249882;28;22133;-65
2023/07/12 05:08:10;;;;;;;8.70;4.97;;;;;;;20.84;58.10;99854.47;4233220;28;26797;-66
2023/07/12 05:10:37;;;;;;;11.20;5.17;;;;;;;20.91;57.97;99851.66;4249737;28;20234;-66
2023/07/12 05:13:04;;;;;;;12.93;5.80;;;;;;;20.89;58.05;99859.28;4220045;28;20234;-68
2023/07/12 05:15:31;;;;;;;10.13;5.13;;;;;;;21.03;57.49;99860.00;4252857;28;21851;-68
2023/07/12 05:17:57;;;;;;;12.93;5.50;;;;;;;21.16;57.24;99870.81;4249790;28;22565;-64
2023/07/12 05:20:24;;;;;;;13.03;5.10;;;;;;;21.11;57.52;99864.31;4267707;28;21664;-65
2023/07/12 05:22:51;;;;;;;13.53;5.20;;;;;;;21.09;57.68;99861.81;4255944;28;20229;-65
2023/07/12 05:25:17;;;;;;;16.83;5.20;;;;;;;21.36;56.92;99865.06;4258111;28;21126;-66
2023/07/12 05:27:45;;;;;;;10.03;5.50;;;;;;;21.52;56.18;99870.97;4251673;28;20289;-67
2023/07/12 05:30:13;;;;;;;12.00;5.07;;;;;;;21.65;56.23;99872.72;4244066;28;20230;-66
2023/07/12 05:32:40;;;;;;;11.97;4.83;;;;;;;22.05;55.30;99874.03;4286853;28;20570;-67
2023/07/12 05:35:07;;;;;;;12.80;5.07;;;;;;;22.29;54.35;99864.69;4246767;28;21937;-66
2023/07/12 05:37:34;;;;;;;13.23;5.43;;;;;;;22.61;53.76;99861.59;4256832;28;20322;-67
2023/07/12 05:40:01;;;;;;;15.63;5.37;;;;;;;23.35;51.34;99862.03;4252825;28;20235;-69
2023/07/12 05:42:29;;;;;;;12.53;5.17;;;;;;;23.25;51.85;99851.63;4319569;28;20435;-67
2023/07/12 05:44:56;;;;;;;13.90;5.07;;;;;;;23.92;50.43;99840.94;4290737;28;20509;-66
2023/07/12 05:47:23;;;;;;;15.77;5.47;;;;;;;24.65;48.56;99844.59;4289483;28;21891;-65
2023/07/12 05:49:50;;;;;;;10.73;4.70;;;;;;;25.34;47.39;99847.94;4279408;28;20258;-65
2023/07/12 05:52:16;;;;;;;14.73;6.03;;;;;;;25.49;46.73;99841.78;4266012;28;22041;-65
2023/07/12 05:54:43;;;;;;;13.95;4.90;;;;;;;25.91;45.96;99845.75;4249196;28;20235;-63
2023/07/12 05:57:10;;;;;;;9.85;4.45;;;;;;;26.66;43.90;99833.81;4257819;28;23019;-67
2023/07/12 05:59:37;;;;;;;12.30;5.43;;;;;;;27.52;42.36;99834.47;4269907;28;20296;-65
2023/07/12 06:02:06;;;;;;;12.82;4.93;;;;;;;28.05;41.32;99838.94;4269047;28;20230;-66
2023/07/12 06:04:33;;;;;;;9.68;5.47;;;;;;;27.50;41.79;99837.53;4261356;28;20240;-65
2023/07/12 06:07:00;;;;;;;11.98;4.80;;;;;;;27.52;41.72;99843.66;4254699;28;20858;-68
2023/07/12 06:09:27;;;;;;;7.45;4.43;;;;;;;28.02;40.73;99845.06;4256285;28;20241;-70
2023/07/12 06:11:53;;;;;;;7.33;4.60;;;;;;;28.39;39.26;99843.94;4249419;28;20256;-73
2023/07/12 06:14:21;;;;;;;9.40;4.87;;;;;;;28.38;39.39;99845.88;4267207;28;21284;-73
2023/07/12 06:16:47;;;;;;;14.60;5.22;;;;;;;28.91;39.00;99833.50;4275840;28;20323;-70
2023/07/12 06:19:14;;;;;;;10.73;5.07;;;;;;;29.76;37.61;99830.81;4270834;28;20573;-76
2023/07/12 06:21:41;;;;;;;13.70;4.68;;;;;;;28.69;39.39;99825.50;4239922;28;20275;-79
2023/07/12 06:24:08;;;;;;;13.30;4.50;;;;;;;28.30;39.86;99821.41;4291299;28;21447;-82
2023/07/12 06:26:35;;;;;;;15.30;5.00;;;;;;;28.60;38.78;99814.09;4302895;28;20435;-84
2023/07/12 06:29:02;;;;;;;17.58;5.07;;;;;;;28.25;39.91;99818.63;4235267;28;20306;-85
2023/07/12 06:31:29;;;;;;;11.00;5.20;;;;;;;29.29;37.84;99814.38;4274943;28;20418;-85
2023/07/12 06:34:00;;;;;;;10.48;4.57;;;;;;;29.92;36.68;99825.97;4280954;28;20238;-81
2023/07/12 06:36:27;;;;;;;14.20;5.47;;;;;;;29.58;37.04;99824.81;4276174;28;23089;-70
2023/07/12 06:38:54;;;;;;;15.27;4.97;;;;;;;30.38;36.72;99833.09;4269696;28;20739;-76
2023/07/12 06:41:21;;;;;;;10.70;5.22;;;;;;;30.16;36.47;99834.44;4257764;28;22286;-78
2023/07/12 06:43:48;;;;;;;7.18;4.18;;;;;;;31.05;35.01;99832.34;4263714;28;21810;-79
2023/07/12 06:46:15;;;;;;;7.75;4.30;;;;;;;32.01;33.29;99830.38;4274181;28;21885;-76
2023/07/12 06:48:42;;;;;;;13.57;4.68;;;;;;;32.56;32.48;99835.28;4295970;28;20364;-76
2023/07/12 06:51:09;;;;;;;9.73;4.80;;;;;;;31.85;32.70;99830.66;4267222;28;20234;-78
2023/07/12 06:53:36;;;;;;;12.15;5.38;;;;;;;30.98;33.67;99829.91;4281022;28;21062;-76
2023/07/12 06:56:03;;;;;;;12.02;4.60;;;;;;;29.92;35.59;99831.53;4269550;28;22004;-76
2023/07/12 06:58:30;;;;;;;14.18;4.60;;;;;;;30.12;35.88;99838.91;4274117;28;22476;-74
2023/07/12 07:00:58;;;;;;;12.07;4.43;;;;;;;31.58;33.73;99826.56;4261859;28;21710;-73
2023/07/12 07:03:25;;;;;;;10.02;4.28;;;;;;;32.18;32.35;99830.66;4264511;28;20611;-74
2023/07/12 07:05:52;;;;;;;11.38;4.60;;;;;;;31.51;32.78;99814.09;4309556;28;21852;-71
2023/07/12 07:08:21;;;;;;;11.40;4.65;;;;;;;32.58;31.43;99818.19;4242759;28;20338;-70
2023/07/12 07:10:50;;;;;;;11.20;4.82;;;;;;;33.02;30.77;99827.94;4281174;28;20323;-71
2023/07/12 07:13:17;;;;;;;14.13;4.93;;;;;;;33.55;30.28;99825.69;4282231;28;20568;-44
2023/07/12 07:15:45;;;;;;;7.75;4.63;;;;;;;33.93;29.79;99820.53;4293671;28;20238;-72
2023/07/12 07:18:13;;;;;;;11.23;4.55;;;;;;;33.58;30.16;99799.78;4272687;28;21304;-74
2023/07/12 07:20:41;;;;;;;9.93;4.00;;;;;;;33.87;29.39;99807.78;4282186;28;20273;-75
2023/07/12 07:23:08;;;;;;;10.30;4.70;;;;;;;33.72;30.05;99794.09;4263077;28;20241;-74
2023/07/12 07:25:35;;;;;;;7.40;4.32;;;;;;;33.28;30.67;99786.13;4241861;28;21989;-74
2023/07/12 07:28:01;;;;;;;12.00;4.20;;;;;;;33.42;29.52;99788.94;4274045;28;25596;-72
2023/07/12 07:30:29;;;;;;;7.60;3.78;;;;;;;32.06;31.26;99791.13;4285990;28;20225;-74
2023/07/12 07:32:57;;;;;;;7.72;4.15;;;;;;;31.38;32.26;99787.75;4249684;28;20331;-74
2023/07/12 07:35:25;;;;;;;10.27;4.32;;;;;;;31.63;32.56;99792.09;4253111;28;20247;-71
2023/07/12 07:37:52;;;;;;;5.68;4.18;;;;;;;31.48;32.66;99784.75;4276535;28;21203;-73
2023/07/12 07:40:20;;;;;;;8.20;4.00;;;;;;;30.95;32.98;99775.44;4277098;28;20231;-70
2023/07/12 07:42:47;;;;;;;8.03;4.50;;;;;;;30.49;33.85;99779.63;4235515;28;20420;-75
2023/07/12 07:45:14;;;;;;;11.60;4.07;;;;;;;30.94;33.63;99779.34;4240884;28;20233;-68
2023/07/12 07:47:41;;;;;;;8.00;3.75;;;;;;;31.16;32.60;99774.34;4286027;28;20280;-72
2023/07/12 07:50:08;;;;;;;12.10;4.32;;;;;;;31.38;32.32;99777.38;4284440;28;20298;-71
2023/07/12 07:52:35;;;;;;;12.18;4.40;;;;;;;30.91;32.69;99770.75;4250725;28;20243;-71
2023/07/12 07:55:02;;;;;;;12.80;4.70;;;;;;;30.72;32.92;99765.97;4260405;28;25733;-69
2023/07/12 07:57:29;;;;;;;11.23;4.07;;;;;;;30.93;31.54;99780.47;4293034;28;20245;-69
2023/07/12 07:59:56;;;;;;;6.70;4.00;;;;;;;30.41;33.38;99779.44;4278435;28;23076;-71
2023/07/12 08:02:22;;;;;;;7.25;3.75;;;;;;;30.22;33.49;99776.56;4277584;28;20250;-71
2023/07/12 08:04:50;;;;;;;8.70;4.03;;;;;;;30.35;33.03;99767.50;4256922;28;20244;-71
2023/07/12 08:07:16;;;;;;;8.93;3.72;;;;;;;30.62;32.94;99752.13;4245038;28;22820;-70
2023/07/12 08:09:43;;;;;;;5.60;3.45;;;;;;;30.18;32.79;99763.22;4285836;28;20452;-70
2023/07/12 08:12:10;;;;;;;12.23;3.80;;;;;;;30.08;33.47;99762.50;4247380;28;20479;-71
2023/07/12 08:14:37;;;;;;;8.90;3.88;;;;;;;30.45;32.74;99764.56;4247029;28;20261;-73
2023/07/12 08:17:03;;;;;;;9.27;3.83;;;;;;;30.60;32.58;99752.44;4263882;28;20245;-71
2023/07/12 08:19:30;;;;;;;8.57;3.90;;;;;;;30.29;33.51;99755.56;4234565;28;21440;-69
2023/07/12 08:21:57;;;;;;;8.02;3.55;;;;;;;29.86;33.51;99747.88;4249210;28;20239;-71
2023/07/12 08:24:23;;;;;;;7.80;3.25;;;;;;;30.01;33.00;99755.31;4251556;28;20235;-71
2023/07/12 08:26:50;;;;;;;7.85;2.80;;;;;;;30.44;31.94;99742.53;4281313;28;20257;-73
2023/07/12 08:29:32;;;;;;;6.03;3.30;;;;;;;29.95;32.05;99739.72;4278741;28;20230;-71
2023/07/12 08:31:59;;;;;;;5.05;3.08;;;;;;;30.27;31.09;99746.63;4255788;28;20868;-71
2023/07/12 08:34:26;;;;;;;5.75;3.22;;;;;;;30.05;31.25;99730.44;4263179;28;20225;-73
2023/07/12 08:36:53;;;;;;;6.53;3.00;;;;;;;30.03;31.89;99727.91;4224712;28;20314;-70
2023/07/12 08:39:23;;;;;;;8.93;3.25;;;;;;;29.91;32.00;99724.69;4247782;28;20242;-69
2023/07/12 08:41:53;;;;;;;6.13;3.22;;;;;;;29.46;33.53;99721.16;4239633;28;21445;-73
2023/07/12 08:44:21;;;;;;;7.03;3.70;;;;;;;29.38;34.72;99717.06;4236774;28;25791;-70
2023/07/12 08:46:54;;;;;;;6.13;3.78;;;;;;;30.30;32.66;99715.34;4254649;28;20816;-71
2023/07/12 08:49:21;;;;;;;10.18;3.40;;;;;;;30.55;30.44;99719.00;4254082;28;20653;-72
2023/07/12 08:51:49;;;;;;;5.28;3.15;;;;;;;30.32;30.74;99710.31;4268556;28;20246;-72
2023/07/12 08:54:25;;;;;;;8.38;3.15;;;;;;;30.55;30.28;99718.13;4255908;28;20420;-72
2023/07/12 08:57:22;;;;;;;6.78;3.38;;;;;;;30.00;31.62;99724.88;4238539;28;20236;-71
2023/07/12 09:00:07;;;;;;;7.85;3.20;;;;;;;29.85;31.39;99709.94;4231242;28;23627;-71
2023/07/12 09:02:34;;;;;;;9.27;3.83;;;;;;;29.91;31.54;99704.31;4293559;28;20243;-69
2023/07/12 09:05:11;;;;;;;5.20;3.38;;;;;;;29.76;31.48;99710.88;4253204;28;21143;-71
2023/07/12 09:07:42;;;;;;;7.82;3.53;;;;;;;29.62;31.27;99699.56;4248671;28;20237;-74
2023/07/12 09:10:09;;;;;;;10.13;3.38;;;;;;;29.05;32.78;99692.44;4279436;28;20226;-71
2023/07/12 09:12:36;;;;;;;5.95;3.00;;;;;;;29.39;32.02;99688.03;4278966;28;25866;-71
2023/07/12 09:15:11;;;;;;;6.10;3.17;;;;;;;29.50;31.10;99681.25;4241398;28;20730;-74
2023/07/12 09:17:43;;;;;;;10.65;3.67;;;;;;;29.18;32.22;99676.22;4247554;28;23606;-73
2023/07/12 09:20:25;;;;;;;9.48;3.55;;;;;;;29.67;31.49;99658.50;4269646;28;21153;-74
2023/07/12 09:22:53;;;;;;;7.47;3.20;;;;;;;29.77;30.40;99659.53;4249182;28;20265;-74
2023/07/12 09:25:23;;;;;;;8.80;3.22;;;;;;;29.56;30.85;99660.56;4242029;28;20230;-70
2023/07/12 09:27:51;;;;;;;10.57;3.03;;;;;;;29.97;30.37;99641.78;4249546;28;21782;-71
2023/07/12 09:30:23;;;;;;;9.20;3.22;;;;;;;30.43;29.34;99660.75;4238513;28;20973;-76
2023/07/12 09:32:53;;;;;;;10.98;3.30;;;;;;;30.58;30.18;99650.53;4239997;28;20545;-73
2023/07/12 09:35:24;;;;;;;7.38;3.22;;;;;;;30.33;29.56;99642.13;4253781;28;20284;-70
2023/07/12 09:37:58;;;;;;;6.05;3.25;;;;;;;30.64;29.06;99638.13;4290317;28;20330;-70
2023/07/12 09:40:29;;;;;;;10.77;3.50;;;;;;;30.73;28.46;99638.28;4245501;28;20525;-72
2023/07/12 09:42:57;;;;;;;6.22;2.88;;;;;;;30.21;29.58;99638.16;4257590;28;21214;-72
2023/07/12 09:45:29;;;;;;;9.75;3.45;;;;;;;30.24;29.74;99630.00;4241442;28;20374;-72
2023/07/12 09:48:03;;;;;;;6.72;3.00;;;;;;;29.94;30.22;99620.88;4235890;28;21701;-76
2023/07/12 09:50:50;;;;;;;6.68;3.25;;;;;;;29.98;30.82;99629.50;4237232;28;20234;-71
2023/07/12 09:53:22;;;;;;;7.85;3.50;;;;;;;30.41;30.23;99629.50;4229700;28;21177;-72
2023/07/12 09:55:57;;;;;;;5.88;3.25;;;;;;;29.75;31.45;99614.34;4218438;28;21197;-71
2023/07/12 09:58:51;;;;;;;10.25;3.25;;;;;;;30.18;30.74;99620.84;4252497;28;20398;-70
2023/07/12 10:01:44;;;;;;;7.10;3.05;;;;;;;30.77;29.44;99608.63;4259544;28;20396;-73
2023/07/12 10:04:30;;;;;;;7.30;3.58;;;;;;;30.86;29.72;99617.13;4228469;28;20235;-70
2023/07/12 10:06:57;;;;;;;8.73;3.40;;;;;;;30.96;30.25;99620.59;4254361;28;22176;-70
2023/07/12 10:09:30;;;;;;;9.93;3.17;;;;;;;30.37;29.75;99610.84;4268128;28;20236;-74
2023/07/12 10:12:18;;;;;;;7.63;3.58;;;;;;;30.67;29.67;99610.44;4249871;28;20303;-67
2023/07/12 10:14:46;;;;;;;8.07;3.53;;;;;;;31.02;29.28;99598.13;4265900;28;20300;-74
2023/07/12 10:17:20;;;;;;;11.02;3.95;;;;;;;30.72;29.71;99592.75;4246689;28;20867;-72
2023/07/12 10:19:50;;;;;;;7.60;3.50;;;;;;;30.80;29.20;99592.06;4253773;28;23943;-73
2023/07/12 10:22:26;;;;;;;4.93;3.55;;;;;;;30.87;28.90;99577.69;4258664;28;20230;-70
2023/07/12 10:24:53;;;;;;;4.95;3.22;;;;;;;30.89;28.92;99578.25;4253862;28;20237;-66
2023/07/12 10:27:24;;;;;;;5.70;3.38;;;;;;;30.28;30.16;99564.03;4245745;28;20237;-66
2023/07/12 10:29:54;;;;;;;8.90;3.25;;;;;;;30.20;30.08;99564.72;4272486;28;24837;-70
2023/07/12 10:32:27;;;;;;;7.28;3.60;;;;;;;30.55;28.99;99567.31;4250549;28;21566;-72
2023/07/12 10:35:35;;;;;;;15.70;4.45;;;;;;;30.93;28.62;99558.91;4255767;28;20260;-67
2023/07/12 10:38:08;;;;;;;5.90;3.38;;;;;;;30.71;28.88;99554.78;4214017;28;20311;-68
2023/07/12 10:40:42;;;;;;;7.47;3.50;;;;;;;30.28;29.36;99544.50;4257859;28;20255;-68
2023/07/12 10:43:14;;;;;;;7.22;2.90;;;;;;;30.39;29.31;99544.38;4254463;28;20228;-70
2023/07/12 10:45:40;;;;;;;5.22;3.67;;;;;;;30.67;28.86;99553.72;4281828;28;20229;-70
2023/07/12 10:48:09;;;;;;;9.13;3.25;;;;;;;30.75;29.11;99550.22;4244336;28;21103;-73
2023/07/12 10:50:43;;;;;;;7.70;3.80;;;;;;;30.68;28.98;99544.19;4253666;28;21137;-70
2023/07/12 10:53:26;;;;;;;8.45;3.35;;;;;;;31.14;28.80;99549.03;4243010;28;20735;-67
2023/07/12 10:56:07;;;;;;;9.50;3.50;;;;;;;31.10;28.54;99548.00;4257323;28;20297;-68
2023/07/12 10:59:03;;;;;;;5.90;3.20;;;;;;;31.19;28.64;99536.13;4275585;28;20301;-69
2023/07/12 11:01:42;;;;;;;3.72;3.10;;;;;;;31.23;28.48;99531.56;4255664;28;20240;-70
2023/07/12 11:04:11;;;;;;;5.28;3.03;;;;;;;31.42;28.35;99523.09;4255018;28;20300;-72
2023/07/12 11:07:24;;;;;;;5.25;3.50;;;;;;;31.04;28.58;99523.22;4258328;28;20436;-69
2023/07/12 11:09:50;;;;;;;7.15;3.92;;;;;;;31.50;28.22;99510.38;4259304;28;20225;-69
2023/07/12 11:12:29;;;;;;;11.45;3.53;;;;;;;31.63;27.90;99514.28;4253664;28;20235;-69
2023/07/12 11:15:22;;;;;;;6.45;3.42;;;;;;;31.69;27.78;99505.50;4260655;28;22383;-68
2023/07/12 11:18:09;;;;;;;7.32;3.78;;;;;;;31.56;28.28;99504.34;4279241;28;20241;-67
2023/07/12 11:21:02;;;;;;;7.03;3.47;;;;;;;31.80;28.14;99497.72;4271241;28;21174;-69
2023/07/12 11:23:35;;;;;;;6.80;3.58;;;;;;;31.89;28.51;99495.00;4278682;28;20365;-68
2023/07/12 11:26:05;;;;;;;8.63;3.60;;;;;;;32.11;28.01;99496.19;4249180;28;20873;-71
2023/07/12 11:28:41;;;;;;;8.65;3.95;;;;;;;32.03;28.00;99490.22;4275607;28;20601;-70
2023/07/12 11:31:15;;;;;;;9.43;4.30;;;;;;;32.30;27.45;99480.13;4250947;28;23737;-69
2023/07/12 11:33:47;;;;;;;8.40;3.80;;;;;;;32.06;28.16;99471.97;4221146;28;20327;-68
2023/07/12 11:36:20;;;;;;;6.85;4.00;;;;;;;32.24;28.43;99481.38;4240972;28;20248;-67
2023/07/12 11:38:49;;;;;;;12.63;3.90;;;;;;;32.51;27.94;99482.41;4238177;28;20432;-69